sensor_id;sensor_type;location;lat;lon;timestamp;pressure;altitude;pressure_sealevel;temperature;humidity
50394;BME280;36308;46.312;25.288;2023-02-15T00:00:06;97379.78;;;1.93;70.19
50394;BME280;36308;46.312;25.288;2023-02-15T00:02:35;97382.09;;;1.96;69.45
50394;BME280;36308;46.312;25.288;2023-02-15T00:05:01;97380.25;;;1.97;69.69
50394;BME280;36308;46.312;25.288;2023-02-15T00:07:26;97385.75;;;1.95;69.67
50394;BME280;36308;46.312;25.288;2023-02-15T00:09:52;97382.09;;;1.96;69.90
50394;BME280;36308;46.312;25.288;2023-02-15T00:12:17;97390.19;;;1.95;69.36
50394;BME280;36308;46.312;25.288;2023-02-15T00:14:43;97377.13;;;1.93;69.43
50394;BME280;36308;46.312;25.288;2023-02-15T00:17:09;97390.41;;;1.93;69.72
50394;BME280;36308;46.312;25.288;2023-02-15T00:19:34;97375.47;;;1.92;69.24
50394;BME280;36308;46.312;25.288;2023-02-15T00:22:00;97388.06;;;1.90;69.12
50394;BME280;36308;46.312;25.288;2023-02-15T00:24:26;97379.63;;;1.87;69.82
50394;BME280;36308;46.312;25.288;2023-02-15T00:26:51;97383.94;;;1.88;68.99
50394;BME280;36308;46.312;25.288;2023-02-15T00:29:18;97385.09;;;1.85;69.37
50394;BME280;36308;46.312;25.288;2023-02-15T00:31:44;97381.59;;;1.85;69.81
50394;BME280;36308;46.312;25.288;2023-02-15T00:34:23;97390.41;;;1.85;69.71
50394;BME280;36308;46.312;25.288;2023-02-15T00:36:49;97383.44;;;1.84;69.65
50394;BME280;36308;46.312;25.288;2023-02-15T00:39:16;97375.63;;;1.82;69.33
50394;BME280;36308;46.312;25.288;2023-02-15T00:41:42;97367.03;;;1.80;69.71
50394;BME280;36308;46.312;25.288;2023-02-15T00:44:08;97378.50;;;1.81;69.90
50394;BME280;36308;46.312;25.288;2023-02-15T00:46:33;97378.50;;;1.81;69.52
50394;BME280;36308;46.312;25.288;2023-02-15T00:48:59;97371.50;;;1.80;70.14
50394;BME280;36308;46.312;25.288;2023-02-15T00:51:25;97374.00;;;1.81;69.20
50394;BME280;36308;46.312;25.288;2023-02-15T00:53:51;97370.69;;;1.79;69.21
50394;BME280;36308;46.312;25.288;2023-02-15T00:56:16;97376.81;;;1.80;69.60
50394;BME280;36308;46.312;25.288;2023-02-15T00:58:42;97367.03;;;1.80;70.14
50394;BME280;36308;46.312;25.288;2023-02-15T01:01:10;97372.34;;;1.80;69.38
50394;BME280;36308;46.312;25.288;2023-02-15T01:03:37;97365.22;;;1.81;69.52
50394;BME280;36308;46.312;25.288;2023-02-15T01:06:03;97357.59;;;1.78;70.36
50394;BME280;36308;46.312;25.288;2023-02-15T01:08:29;97358.09;;;1.81;69.85
50394;BME280;36308;46.312;25.288;2023-02-15T01:10:55;97337.72;;;1.66;70.04
50394;BME280;36308;46.312;25.288;2023-02-15T01:13:20;97361.72;;;1.80;69.89
50394;BME280;36308;46.312;25.288;2023-02-15T01:15:52;97367.22;;;1.79;69.79
50394;BME280;36308;46.312;25.288;2023-02-15T01:18:18;97356.94;;;1.76;69.38
50394;BME280;36308;46.312;25.288;2023-02-15T01:20:43;97359.25;;;1.79;69.23
50394;BME280;36308;46.312;25.288;2023-02-15T01:23:09;97354.94;;;1.78;69.29
50394;BME280;36308;46.312;25.288;2023-02-15T01:25:35;97354.28;;;1.76;69.60
50394;BME280;36308;46.312;25.288;2023-02-15T01:28:01;97348.97;;;1.76;70.05
50394;BME280;36308;46.312;25.288;2023-02-15T01:30:27;97334.09;;;1.67;69.94
50394;BME280;36308;46.312;25.288;2023-02-15T01:32:53;97344.03;;;1.73;69.59
50394;BME280;36308;46.312;25.288;2023-02-15T01:35:19;97345.88;;;1.72;69.62
50394;BME280;36308;46.312;25.288;2023-02-15T01:37:44;97342.72;;;1.69;69.40
50394;BME280;36308;46.312;25.288;2023-02-15T01:40:16;97343.69;;;1.68;69.44
50394;BME280;36308;46.312;25.288;2023-02-15T01:42:42;97348.34;;;1.66;69.72
50394;BME280;36308;46.312;25.288;2023-02-15T01:45:28;97344.22;;;1.63;69.42
50394;BME280;36308;46.312;25.288;2023-02-15T01:48:04;97345.03;;;1.64;69.70
50394;BME280;36308;46.312;25.288;2023-02-15T01:50:34;97346.38;;;1.59;69.60
50394;BME280;36308;46.312;25.288;2023-02-15T01:55:34;97344.06;;;1.56;69.91
50394;BME280;36308;46.312;25.288;2023-02-15T01:58:01;97342.38;;;1.55;69.84
50394;BME280;36308;46.312;25.288;2023-02-15T02:00:28;97338.63;;;1.50;69.77
50394;BME280;36308;46.312;25.288;2023-02-15T02:02:55;97342.91;;;1.51;70.08
50394;BME280;36308;46.312;25.288;2023-02-15T02:05:22;97344.06;;;1.48;69.48
50394;BME280;36308;46.312;25.288;2023-02-15T02:07:50;97334.44;;;1.47;70.05
50394;BME280;36308;46.312;25.288;2023-02-15T02:10:20;97341.75;;;1.45;69.43
50394;BME280;36308;46.312;25.288;2023-02-15T02:12:50;97340.44;;;1.41;69.87
50394;BME280;36308;46.312;25.288;2023-02-15T02:15:17;97342.41;;;1.39;69.53
50394;BME280;36308;46.312;25.288;2023-02-15T02:34:19;97352.53;;;1.35;70.25
50394;BME280;36308;46.312;25.288;2023-02-15T02:36:59;97345.56;;;1.34;70.20
50394;BME280;36308;46.312;25.288;2023-02-15T02:42:39;97348.06;;;1.36;69.68
50394;BME280;36308;46.312;25.288;2023-02-15T02:45:09;97349.69;;;1.37;70.02
50394;BME280;36308;46.312;25.288;2023-02-15T02:47:41;97352.53;;;1.35;69.67
50394;BME280;36308;46.312;25.288;2023-02-15T02:50:15;97343.94;;;1.25;69.80
50394;BME280;36308;46.312;25.288;2023-02-15T02:52:43;97357.00;;;1.35;70.10
50394;BME280;36308;46.312;25.288;2023-02-15T02:57:46;97355.69;;;1.31;69.68
50394;BME280;36308;46.312;25.288;2023-02-15T03:00:14;97357.19;;;1.33;70.15
50394;BME280;36308;46.312;25.288;2023-02-15T03:02:42;97345.09;;;1.31;69.39
50394;BME280;36308;46.312;25.288;2023-02-15T03:05:15;97345.72;;;1.33;69.57
50394;BME280;36308;46.312;25.288;2023-02-15T03:07:42;97354.53;;;1.33;69.89
50394;BME280;36308;46.312;25.288;2023-02-15T03:10:10;97358.66;;;1.36;69.89
50394;BME280;36308;46.312;25.288;2023-02-15T03:12:38;97361.31;;;1.36;70.02
50394;BME280;36308;46.312;25.288;2023-02-15T03:15:10;97357.66;;;1.37;69.90
50394;BME280;36308;46.312;25.288;2023-02-15T03:17:42;97357.00;;;1.35;69.80
50394;BME280;36308;46.312;25.288;2023-02-15T03:20:22;97368.09;;;1.38;69.84
50394;BME280;36308;46.312;25.288;2023-02-15T03:22:58;97363.97;;;1.36;70.21
50394;BME280;36308;46.312;25.288;2023-02-15T03:25:25;97365.28;;;1.40;70.07
50394;BME280;36308;46.312;25.288;2023-02-15T03:27:55;97352.03;;;1.32;70.53
50394;BME280;36308;46.312;25.288;2023-02-15T03:30:24;97362.63;;;1.40;70.28
50394;BME280;36308;46.312;25.288;2023-02-15T03:32:51;97366.94;;;1.41;70.48
50394;BME280;36308;46.312;25.288;2023-02-15T03:35:21;97367.78;;;1.41;69.75
50394;BME280;36308;46.312;25.288;2023-02-15T03:37:57;97366.94;;;1.41;70.18
50394;BME280;36308;46.312;25.288;2023-02-15T03:40:37;97366.94;;;1.41;70.44
50394;BME280;36308;46.312;25.288;2023-02-15T03:45:57;97367.78;;;1.41;69.48
50394;BME280;36308;46.312;25.288;2023-02-15T03:48:41;97366.44;;;1.37;69.67
50394;BME280;36308;46.312;25.288;2023-02-15T03:51:12;97364.78;;;1.36;69.37
50394;BME280;36308;46.312;25.288;2023-02-15T03:53:59;97380.53;;;1.38;69.03
50394;BME280;36308;46.312;25.288;2023-02-15T03:56:26;97376.53;;;1.34;69.06
50394;BME280;36308;46.312;25.288;2023-02-15T03:58:51;97373.41;;;1.30;69.32
50394;BME280;36308;46.312;25.288;2023-02-15T04:04:26;97390.47;;;1.28;68.97
50394;BME280;36308;46.312;25.288;2023-02-15T04:06:53;97390.97;;;1.23;68.57
50394;BME280;36308;46.312;25.288;2023-02-15T04:09:19;97386.16;;;1.18;69.57
50394;BME280;36308;46.312;25.288;2023-02-15T04:12:03;97390.81;;;1.16;68.74
50394;BME280;36308;46.312;25.288;2023-02-15T04:14:29;97387.50;;;1.14;68.47
50394;BME280;36308;46.312;25.288;2023-02-15T04:17:12;97396.41;;;1.13;68.76
50394;BME280;36308;46.312;25.288;2023-02-15T04:19:38;97396.75;;;1.10;68.14
50394;BME280;36308;46.312;25.288;2023-02-15T04:22:22;97392.59;;;1.08;68.16
50394;BME280;36308;46.312;25.288;2023-02-15T04:25:06;97399.88;;;1.06;68.45
50394;BME280;36308;46.312;25.288;2023-02-15T04:27:46;97390.44;;;1.03;68.75
50394;BME280;36308;46.312;25.288;2023-02-15T04:30:14;97395.75;;;1.03;68.04
50394;BME280;36308;46.312;25.288;2023-02-15T04:32:41;97386.13;;;0.94;68.22
50394;BME280;36308;46.312;25.288;2023-02-15T04:35:06;97405.81;;;0.99;68.17
50394;BME280;36308;46.312;25.288;2023-02-15T04:37:33;97411.13;;;0.99;67.82
50394;BME280;36308;46.312;25.288;2023-02-15T04:39:58;97420.22;;;0.97;67.78
50394;BME280;36308;46.312;25.288;2023-02-15T04:42:27;97417.91;;;0.94;68.20
50394;BME280;36308;46.312;25.288;2023-02-15T04:44:53;97418.06;;;0.92;68.13
50394;BME280;36308;46.312;25.288;2023-02-15T04:47:19;97412.94;;;0.91;67.59
50394;BME280;36308;46.312;25.288;2023-02-15T04:49:45;97414.91;;;0.89;67.43
50394;BME280;36308;46.312;25.288;2023-02-15T04:52:10;97415.25;;;0.86;67.13
50394;BME280;36308;46.312;25.288;2023-02-15T04:54:36;97417.06;;;0.85;67.65
50394;BME280;36308;46.312;25.288;2023-02-15T04:57:03;97430.31;;;0.85;67.61
50394;BME280;36308;46.312;25.288;2023-02-15T04:59:29;97403.16;;;0.75;67.68
50394;BME280;36308;46.312;25.288;2023-02-15T05:01:54;97428.78;;;0.83;67.23
50394;BME280;36308;46.312;25.288;2023-02-15T05:04:20;97431.44;;;0.83;67.66
50394;BME280;36308;46.312;25.288;2023-02-15T05:06:45;97426.34;;;0.81;67.38
50394;BME280;36308;46.312;25.288;2023-02-15T05:09:12;97441.22;;;0.82;67.67
50394;BME280;36308;46.312;25.288;2023-02-15T05:11:37;97432.75;;;0.78;67.18
50394;BME280;36308;46.312;25.288;2023-02-15T05:14:03;97413.34;;;0.62;67.66
50394;BME280;36308;46.312;25.288;2023-02-15T05:16:29;97433.09;;;0.75;67.13
50394;BME280;36308;46.312;25.288;2023-02-15T05:18:54;97434.06;;;0.74;67.75
50394;BME280;36308;46.312;25.288;2023-02-15T05:21:19;97441.03;;;0.75;67.60
50394;BME280;36308;46.312;25.288;2023-02-15T05:23:45;97434.41;;;0.71;67.18
50394;BME280;36308;46.312;25.288;2023-02-15T05:26:12;97443.00;;;0.73;67.55
50394;BME280;36308;46.312;25.288;2023-02-15T05:29:01;97439.69;;;0.71;67.67
50394;BME280;36308;46.312;25.288;2023-02-15T05:31:27;97437.06;;;0.71;67.67
50394;BME280;36308;46.312;25.288;2023-02-15T05:33:52;97437.22;;;0.70;67.60
50394;BME280;36308;46.312;25.288;2023-02-15T05:36:18;97440.00;;;0.68;67.42
50394;BME280;36308;46.312;25.288;2023-02-15T05:38:43;97434.56;;;0.70;67.76
50394;BME280;36308;46.312;25.288;2023-02-15T05:41:10;97445.00;;;0.71;67.39
50394;BME280;36308;46.312;25.288;2023-02-15T05:43:36;97442.34;;;0.71;67.65
50394;BME280;36308;46.312;25.288;2023-02-15T05:46:03;97454.75;;;0.71;66.94
50394;BME280;36308;46.312;25.288;2023-02-15T05:48:29;97450.28;;;0.71;66.99
50394;BME280;36308;46.312;25.288;2023-02-15T05:51:06;97449.63;;;0.69;67.64
50394;BME280;36308;46.312;25.288;2023-02-15T05:53:34;97455.88;;;0.68;67.18
50394;BME280;36308;46.312;25.288;2023-02-15T05:56:00;97470.66;;;0.71;66.75
50394;BME280;36308;46.312;25.288;2023-02-15T05:58:30;97472.44;;;0.70;67.31
50394;BME280;36308;46.312;25.288;2023-02-15T06:00:56;97475.09;;;0.70;67.11
50394;BME280;36308;46.312;25.288;2023-02-15T06:03:23;97480.38;;;0.70;66.77
50394;BME280;36308;46.312;25.288;2023-02-15T06:05:49;97480.38;;;0.70;66.56
50394;BME280;36308;46.312;25.288;2023-02-15T06:08:14;97475.09;;;0.70;66.71
50394;BME280;36308;46.312;25.288;2023-02-15T06:10:40;97487.34;;;0.71;66.38
50394;BME280;36308;46.312;25.288;2023-02-15T06:13:06;97478.75;;;0.69;66.16
50394;BME280;36308;46.312;25.288;2023-02-15T06:15:32;97484.03;;;0.69;66.74
50394;BME280;36308;46.312;25.288;2023-02-15T06:17:57;97488.00;;;0.65;66.14
50394;BME280;36308;46.312;25.288;2023-02-15T06:20:23;97490.97;;;0.70;66.47
50394;BME280;36308;46.312;25.288;2023-02-15T06:22:48;97494.63;;;0.69;66.34
50394;BME280;36308;46.312;25.288;2023-02-15T06:25:14;97490.31;;;0.68;65.66
50394;BME280;36308;46.312;25.288;2023-02-15T06:27:42;97490.47;;;0.67;65.54
50394;BME280;36308;46.312;25.288;2023-02-15T06:30:09;97493.81;;;0.69;65.89
50394;BME280;36308;46.312;25.288;2023-02-15T06:32:35;97488.66;;;0.67;65.61
50394;BME280;36308;46.312;25.288;2023-02-15T06:35:01;97483.00;;;0.62;66.01
50394;BME280;36308;46.312;25.288;2023-02-15T06:37:27;97495.59;;;0.68;65.99
50394;BME280;36308;46.312;25.288;2023-02-15T06:39:52;97487.66;;;0.68;66.23
50394;BME280;36308;46.312;25.288;2023-02-15T06:42:18;97491.63;;;0.72;66.40
50394;BME280;36308;46.312;25.288;2023-02-15T06:44:44;97490.66;;;0.73;65.45
50394;BME280;36308;46.312;25.288;2023-02-15T06:47:10;97499.28;;;0.75;66.11
50394;BME280;36308;46.312;25.288;2023-02-15T06:49:36;97472.09;;;0.65;65.75
50394;BME280;36308;46.312;25.288;2023-02-15T06:52:02;97487.00;;;0.74;65.57
50394;BME280;36308;46.312;25.288;2023-02-15T06:54:28;97491.19;;;0.77;65.35
50394;BME280;36308;46.312;25.288;2023-02-15T06:56:53;97486.88;;;0.76;65.67
50394;BME280;36308;46.312;25.288;2023-02-15T06:59:19;97483.91;;;0.79;66.04
50394;BME280;36308;46.312;25.288;2023-02-15T07:01:44;97465.69;;;0.76;65.64
50394;BME280;36308;46.312;25.288;2023-02-15T07:04:10;97481.09;;;0.80;65.28
50394;BME280;36308;46.312;25.288;2023-02-15T07:06:36;97487.38;;;0.79;65.71
50394;BME280;36308;46.312;25.288;2023-02-15T07:09:02;97477.13;;;0.85;65.26
50394;BME280;36308;46.312;25.288;2023-02-15T07:11:28;97477.13;;;0.85;65.30
50394;BME280;36308;46.312;25.288;2023-02-15T07:14:12;97479.28;;;0.89;65.42
50394;BME280;36308;46.312;25.288;2023-02-15T07:16:38;97474.50;;;0.93;65.81
50394;BME280;36308;46.312;25.288;2023-02-15T07:19:04;97480.81;;;0.92;65.72
50394;BME280;36308;46.312;25.288;2023-02-15T07:21:29;97486.13;;;1.00;65.77
50394;BME280;36308;46.312;25.288;2023-02-15T07:23:58;97491.09;;;1.03;65.88
50394;BME280;36308;46.312;25.288;2023-02-15T07:26:24;97493.44;;;1.06;65.70
50394;BME280;36308;46.312;25.288;2023-02-15T07:28:50;97483.81;;;1.05;65.85
50394;BME280;36308;46.312;25.288;2023-02-15T07:31:16;97456.31;;;0.98;65.97
50394;BME280;36308;46.312;25.288;2023-02-15T07:33:41;97485.50;;;1.14;65.13
50394;BME280;36308;46.312;25.288;2023-02-15T07:36:07;97471.25;;;1.15;65.60
50394;BME280;36308;46.312;25.288;2023-02-15T07:38:36;97483.03;;;1.21;65.63
50394;BME280;36308;46.312;25.288;2023-02-15T07:41:07;97483.53;;;1.25;65.55
50394;BME280;36308;46.312;25.288;2023-02-15T07:43:39;97483.19;;;1.28;64.75
50394;BME280;36308;46.312;25.288;2023-02-15T07:46:07;97483.03;;;1.29;64.86
50394;BME280;36308;46.312;25.288;2023-02-15T07:48:34;97487.03;;;1.33;65.72
50394;BME280;36308;46.312;25.288;2023-02-15T07:51:02;97483.88;;;1.38;65.35
50394;BME280;36308;46.312;25.288;2023-02-15T07:53:29;97476.25;;;1.43;65.90
50394;BME280;36308;46.312;25.288;2023-02-15T07:56:01;97480.88;;;1.49;65.38
50394;BME280;36308;46.312;25.288;2023-02-15T07:58:27;97480.56;;;1.52;65.39
50394;BME280;36308;46.312;25.288;2023-02-15T08:01:15;97477.41;;;1.57;65.68
50394;BME280;36308;46.312;25.288;2023-02-15T08:03:41;97482.41;;;1.60;65.00
50394;BME280;36308;46.312;25.288;2023-02-15T08:06:27;97481.75;;;1.66;65.43
50394;BME280;36308;46.312;25.288;2023-02-15T08:08:53;97478.59;;;1.71;65.02
50394;BME280;36308;46.312;25.288;2023-02-15T08:11:29;97492.16;;;1.76;65.20
50394;BME280;36308;46.312;25.288;2023-02-15T08:13:59;97489.84;;;1.81;65.00
50394;BME280;36308;46.312;25.288;2023-02-15T08:16:32;97491.84;;;1.87;65.75
50394;BME280;36308;46.312;25.288;2023-02-15T08:19:03;97485.22;;;1.91;65.51
50394;BME280;36308;46.312;25.288;2023-02-15T08:21:30;97495.16;;;1.97;64.32
50394;BME280;36308;46.312;25.288;2023-02-15T08:23:57;97499.28;;;2.00;64.66
50394;BME280;36308;46.312;25.288;2023-02-15T08:26:24;97489.19;;;2.04;64.61
50394;BME280;36308;46.312;25.288;2023-02-15T08:28:50;97484.03;;;1.94;64.60
50394;BME280;36308;46.312;25.288;2023-02-15T08:31:17;97493.63;;;2.11;64.63
50394;BME280;36308;46.312;25.288;2023-02-15T08:33:44;97493.81;;;2.18;64.95
50394;BME280;36308;46.312;25.288;2023-02-15T08:36:13;97499.44;;;2.23;64.92
50394;BME280;36308;46.312;25.288;2023-02-15T08:38:39;97500.75;;;2.27;64.48
50394;BME280;36308;46.312;25.288;2023-02-15T08:41:28;97501.25;;;2.31;64.26
50394;BME280;36308;46.312;25.288;2023-02-15T08:43:59;97500.88;;;2.34;63.51
50394;BME280;36308;46.312;25.288;2023-02-15T08:46:26;97504.88;;;2.38;63.80
50394;BME280;36308;46.312;25.288;2023-02-15T08:48:52;97510.00;;;2.39;63.90
50394;BME280;36308;46.312;25.288;2023-02-15T08:51:20;97504.34;;;2.42;63.91
50394;BME280;36308;46.312;25.288;2023-02-15T08:53:48;97504.03;;;2.46;63.11
50394;BME280;36308;46.312;25.288;2023-02-15T08:56:15;97504.03;;;2.46;62.62
50394;BME280;36308;46.312;25.288;2023-02-15T08:58:41;97502.03;;;2.48;62.40
50394;BME280;36308;46.312;25.288;2023-02-15T09:01:11;97505.66;;;2.47;63.09
50394;BME280;36308;46.312;25.288;2023-02-15T09:03:37;97504.97;;;2.53;62.99
50394;BME280;36308;46.312;25.288;2023-02-15T09:06:03;97506.28;;;2.57;62.95
50394;BME280;36308;46.312;25.288;2023-02-15T09:08:29;97497.19;;;2.59;62.47
50394;BME280;36308;46.312;25.288;2023-02-15T09:11:05;97509.75;;;2.66;62.97
50394;BME280;36308;46.312;25.288;2023-02-15T09:13:31;97504.94;;;2.69;63.05
50394;BME280;36308;46.312;25.288;2023-02-15T09:16:05;97505.91;;;2.76;63.14
50394;BME280;36308;46.312;25.288;2023-02-15T09:18:34;97515.84;;;2.82;63.24
50394;BME280;36308;46.312;25.288;2023-02-15T09:21:12;97511.84;;;2.87;63.18
50394;BME280;36308;46.312;25.288;2023-02-15T09:23:42;97513.81;;;2.93;63.05
50394;BME280;36308;46.312;25.288;2023-02-15T09:26:10;97508.81;;;2.98;63.17
50394;BME280;36308;46.312;25.288;2023-02-15T09:28:36;97507.28;;;3.03;62.92
50394;BME280;36308;46.312;25.288;2023-02-15T09:31:09;97476.91;;;2.98;62.95
50394;BME280;36308;46.312;25.288;2023-02-15T09:33:36;97496.75;;;3.18;62.40
50394;BME280;36308;46.312;25.288;2023-02-15T09:36:03;97498.72;;;3.24;61.74
50394;BME280;36308;46.312;25.288;2023-02-15T09:38:29;97501.31;;;3.33;61.88
50394;BME280;36308;46.312;25.288;2023-02-15T09:44:12;97496.44;;;3.44;61.67
50394;BME280;36308;46.312;25.288;2023-02-15T09:57:46;97488.44;;;3.68;60.11
50394;BME280;36308;46.312;25.288;2023-02-15T10:03:07;97481.94;;;3.70;60.50
50394;BME280;36308;46.312;25.288;2023-02-15T10:13:40;97450.63;;;3.57;59.94
50394;BME280;36308;46.312;25.288;2023-02-15T10:16:26;97467.63;;;3.71;59.87
50394;BME280;36308;46.312;25.288;2023-02-15T10:19:16;97468.47;;;3.72;59.69
50394;BME280;36308;46.312;25.288;2023-02-15T10:24:46;97462.44;;;3.78;59.81
50394;BME280;36308;46.312;25.288;2023-02-15T10:27:25;97465.91;;;3.78;59.64
50394;BME280;36308;46.312;25.288;2023-02-15T10:30:02;97463.09;;;3.80;59.15
50394;BME280;36308;46.312;25.288;2023-02-15T10:32:38;97451.78;;;3.78;59.55
50394;BME280;36308;46.312;25.288;2023-02-15T10:35:20;97467.16;;;3.91;60.00
50394;BME280;36308;46.312;25.288;2023-02-15T10:41:09;97462.50;;;4.08;59.91
50394;BME280;36308;46.312;25.288;2023-02-15T10:43:54;97461.38;;;4.17;59.88
50394;BME280;36308;46.312;25.288;2023-02-15T10:49:06;97457.28;;;4.29;58.82
50394;BME280;36308;46.312;25.288;2023-02-15T10:54:22;97438.63;;;4.29;59.40
50394;BME280;36308;46.312;25.288;2023-02-15T11:07:43;97438.97;;;4.71;58.72
50394;BME280;36308;46.312;25.288;2023-02-15T11:10:44;97438.81;;;4.72;58.26
50394;BME280;36308;46.312;25.288;2023-02-15T11:13:17;97423.09;;;4.77;58.32
50394;BME280;36308;46.312;25.288;2023-02-15T11:15:59;97424.34;;;4.81;58.61
50394;BME280;36308;46.312;25.288;2023-02-15T11:23:31;97407.94;;;5.36;58.69
50394;BME280;36308;46.312;25.288;2023-02-15T11:26:02;97425.19;;;5.61;57.17
50394;BME280;36308;46.312;25.288;2023-02-15T11:28:34;97421.75;;;5.67;56.53
50394;BME280;36308;46.312;25.288;2023-02-15T11:31:58;97425.06;;;5.70;55.97
50394;BME280;36308;46.312;25.288;2023-02-15T11:34:05;97405.44;;;5.56;55.41
50394;BME280;36308;46.312;25.288;2023-02-15T11:36:40;97414.69;;;5.60;55.61
50394;BME280;36308;46.312;25.288;2023-02-15T11:39:12;97429.25;;;5.57;54.96
50394;BME280;36308;46.312;25.288;2023-02-15T11:41:43;97432.97;;;5.56;55.43
50394;BME280;36308;46.312;25.288;2023-02-15T11:44:14;97431.94;;;5.57;55.15
50394;BME280;36308;46.312;25.288;2023-02-15T11:46:41;97425.31;;;5.53;55.15
50394;BME280;36308;46.312;25.288;2023-02-15T11:49:30;97404.25;;;5.37;55.17
50394;BME280;36308;46.312;25.288;2023-02-15T11:51:57;97421.56;;;5.47;55.28
50394;BME280;36308;46.312;25.288;2023-02-15T11:54:33;97422.16;;;5.43;54.88
50394;BME280;36308;46.312;25.288;2023-02-15T11:59:37;97414.41;;;5.26;54.11
50394;BME280;36308;46.312;25.288;2023-02-15T12:02:23;97406.44;;;5.12;54.40
50394;BME280;36308;46.312;25.288;2023-02-15T12:04:56;97409.25;;;5.03;54.97
50394;BME280;36308;46.312;25.288;2023-02-15T12:07:45;97401.75;;;4.92;54.80
50394;BME280;36308;46.312;25.288;2023-02-15T12:10:23;97404.59;;;4.91;54.97
50394;BME280;36308;46.312;25.288;2023-02-15T12:15:37;97393.41;;;4.80;55.21
50394;BME280;36308;46.312;25.288;2023-02-15T12:18:04;97391.38;;;4.82;55.85
50394;BME280;36308;46.312;25.288;2023-02-15T12:20:33;97375.00;;;4.85;56.41
50394;BME280;36308;46.312;25.288;2023-02-15T12:23:03;97387.97;;;5.10;56.77
50394;BME280;36308;46.312;25.288;2023-02-15T12:25:41;97376.81;;;5.21;56.77
50394;BME280;36308;46.312;25.288;2023-02-15T12:28:31;97377.97;;;5.34;56.54
50394;BME280;36308;46.312;25.288;2023-02-15T12:30:58;97384.94;;;5.35;55.66
50394;BME280;36308;46.312;25.288;2023-02-15T12:33:33;97386.78;;;5.34;55.53
50394;BME280;36308;46.312;25.288;2023-02-15T12:36:19;97392.03;;;5.49;55.99
50394;BME280;36308;46.312;25.288;2023-02-15T12:39:05;97390.38;;;5.70;55.75
50394;BME280;36308;46.312;25.288;2023-02-15T12:41:31;97389.31;;;5.92;55.75
50394;BME280;36308;46.312;25.288;2023-02-15T12:44:16;97388.59;;;6.05;55.10
50394;BME280;36308;46.312;25.288;2023-02-15T12:46:56;97380.41;;;6.06;54.44
50394;BME280;36308;46.312;25.288;2023-02-15T12:49:23;97376.94;;;6.13;54.59
50394;BME280;36308;46.312;25.288;2023-02-15T12:51:54;97364.19;;;6.08;54.61
50394;BME280;36308;46.312;25.288;2023-02-15T12:56:55;97337.53;;;6.15;54.07
50394;BME280;36308;46.312;25.288;2023-02-15T12:59:22;97374.38;;;6.33;53.34
50394;BME280;36308;46.312;25.288;2023-02-15T13:01:48;97372.72;;;6.25;53.68
50394;BME280;36308;46.312;25.288;2023-02-15T13:06:49;97366.91;;;5.93;53.08
50394;BME280;36308;46.312;25.288;2023-02-15T13:09:37;97379.56;;;5.78;53.32
50394;BME280;36308;46.312;25.288;2023-02-15T13:12:23;97370.19;;;5.60;53.92
50394;BME280;36308;46.312;25.288;2023-02-15T13:14:52;97373.19;;;5.51;53.58
50394;BME280;36308;46.312;25.288;2023-02-15T13:17:31;97380.50;;;5.42;54.10
50394;BME280;36308;46.312;25.288;2023-02-15T13:20:13;97380.00;;;5.32;54.28
50394;BME280;36308;46.312;25.288;2023-02-15T13:22:44;97370.84;;;5.19;54.04
50394;BME280;36308;46.312;25.288;2023-02-15T13:25:22;97377.31;;;5.10;54.15
50394;BME280;36308;46.312;25.288;2023-02-15T13:27:52;97376.63;;;5.01;54.89
50394;BME280;36308;46.312;25.288;2023-02-15T13:30:31;97384.53;;;4.95;54.90
50394;BME280;36308;46.312;25.288;2023-02-15T13:33:05;97387.78;;;4.90;55.08
50394;BME280;36308;46.312;25.288;2023-02-15T13:35:58;97379.06;;;4.81;54.98
50394;BME280;36308;46.312;25.288;2023-02-15T13:41:13;97365.88;;;4.73;55.30
50394;BME280;36308;46.312;25.288;2023-02-15T13:44:03;97361.72;;;4.71;55.31
50394;BME280;36308;46.312;25.288;2023-02-15T14:14:11;97372.22;;;4.94;56.93
50394;BME280;36308;46.312;25.288;2023-02-15T14:16:50;97381.75;;;5.03;56.48
50394;BME280;36308;46.312;25.288;2023-02-15T14:28:14;97381.75;;;5.03;55.54
50394;BME280;36308;46.312;25.288;2023-02-15T14:30:46;97382.53;;;4.97;55.76
50394;BME280;36308;46.312;25.288;2023-02-15T14:35:39;97371.34;;;4.86;56.07
50394;BME280;36308;46.312;25.288;2023-02-15T14:44:38;97384.38;;;4.96;56.12
50394;BME280;36308;46.312;25.288;2023-02-15T14:47:31;97355.06;;;4.81;56.03
50394;BME280;36308;46.312;25.288;2023-02-15T14:49:58;97361.03;;;4.83;55.99
50394;BME280;36308;46.312;25.288;2023-02-15T14:52:23;97356.91;;;4.81;56.05
50394;BME280;36308;46.312;25.288;2023-02-15T14:59:54;97377.53;;;4.72;56.26
50394;BME280;36308;46.312;25.288;2023-02-15T15:07:43;97376.22;;;4.47;56.01
50394;BME280;36308;46.312;25.288;2023-02-15T15:15:13;97382.81;;;4.21;56.62
50394;BME280;36308;46.312;25.288;2023-02-15T15:20:14;97390.63;;;4.08;57.09
50394;BME280;36308;46.312;25.288;2023-02-15T15:26:20;97390.16;;;3.89;56.71
50394;BME280;36308;46.312;25.288;2023-02-15T15:51:02;97399.47;;;3.09;57.96
50394;BME280;36308;46.312;25.288;2023-02-15T15:53:34;97390.91;;;2.99;57.80
50394;BME280;36308;46.312;25.288;2023-02-15T15:56:07;97394.28;;;2.93;57.82
50394;BME280;36308;46.312;25.288;2023-02-15T15:58:36;97390.00;;;2.83;58.30
50394;BME280;36308;46.312;25.288;2023-02-15T16:01:09;97398.00;;;2.75;58.31
50394;BME280;36308;46.312;25.288;2023-02-15T16:03:49;97398.06;;;2.67;58.00
50394;BME280;36308;46.312;25.288;2023-02-15T16:08:54;97397.16;;;2.52;58.43
50394;BME280;36308;46.312;25.288;2023-02-15T16:11:24;97390.84;;;2.45;58.04
50394;BME280;36308;46.312;25.288;2023-02-15T16:13:50;97393.22;;;2.39;58.70
50394;BME280;36308;46.312;25.288;2023-02-15T16:16:27;97393.91;;;2.33;58.94
50394;BME280;36308;46.312;25.288;2023-02-15T16:18:56;97388.13;;;2.21;58.22
50394;BME280;36308;46.312;25.288;2023-02-15T16:21:29;97379.91;;;2.08;58.44
50394;BME280;36308;46.312;25.288;2023-02-15T16:28:59;97359.13;;;1.72;59.06